ESFU weather

CLOSED Urasa Air Base
Växjö, Kronoberge län, Sweden

Public forecast

Using degrees Celsius for public forecast. Weather courtesy of forecast.io.

METAR (pilot weather report)

Closest report is Växjö Kronoberg Airport, 16.5 nm (30.6 km) NNW. Retrieved 2019/07/17 21:20 UTC (21 minutes ago):

ESMX 172120Z AUTO 00000KT 9999 NCD 11/11 Q1012

TAF (pilot weather forecast)

Forecast is more than 12 hours old.

Closest forecast is Växjö Kronoberg Airport, 16.5 nm (30.6 km) NNW. Retrieved 2019/06/26 16:36 UTC (21 days ago):

TAF TAF ESMX 261530Z 2616/2724 30009KT 9999 SCT040TCU